Time;durP1;ratioP1;P1;durP2;ratioP2;P2;SDS_P1;SDS_P2;PMS_P1;PMS_P2;Temp;Humidity;BMP_temperature;BMP_pressure;BME280_temperature;BME280_humidity;BME280_pressure;Samples;Min_cycle;Max_cycle;Signal;HPM_P1;HPM_P2
2023/05/10 04:48:53;;;;;;;;;0.75;0.75;;;;;;;;5281609;22;33145;-74
2023/05/10 04:51:18;;;;;;;;;0.25;0.25;;;;;;;;6254721;22;31378;-74
2023/05/10 04:53:43;;;;;;;;;0.75;0.25;;;;;;;;6252577;22;31241;-76
2023/05/10 04:56:09;;;;;;;;;1.00;1.00;;;;;;;;6253455;22;31050;-74
2023/05/10 04:58:34;;;;;;;;;1.00;1.00;;;;;;;;6225291;22;31440;-73
2023/05/10 05:01:06;;;;;;;;;1.50;1.00;;;;;;;;6253744;22;31854;-73
2023/05/10 05:03:32;;;;;;;;;0.00;0.00;;;;;;;;6253445;22;32371;-70
2023/05/10 05:05:57;;;;;;;;;1.75;1.00;;;;;;;;6252648;22;31404;-76
2023/05/10 05:08:23;;;;;;;;;0.00;0.00;;;;;;;;6252981;22;31323;-72
2023/05/10 05:10:50;;;;;;;;;1.50;0.00;;;;;;;;6252974;22;31318;-71
2023/05/10 05:13:15;;;;;;;;;1.00;1.00;;;;;;;;6225871;22;31773;-73
2023/05/10 05:15:40;;;;;;;;;1.25;0.75;;;;;;;;6253014;22;31120;-75
2023/05/10 05:18:05;;;;;;;;;1.00;0.50;;;;;;;;6253421;22;31405;-74
2023/05/10 05:20:32;;;;;;;;;2.75;2.75;;;;;;;;6254314;22;31362;-77
2023/05/10 05:22:57;;;;;;;;;2.50;2.50;;;;;;;;6253330;22;31884;-73
2023/05/10 05:25:22;;;;;;;;;1.50;1.25;;;;;;;;6248767;22;31239;-73
2023/05/10 05:27:47;;;;;;;;;1.00;1.00;;;;;;;;6252971;22;31141;-77
2023/05/10 05:30:12;;;;;;;;;2.00;2.00;;;;;;;;6254455;22;30926;-78
2023/05/10 05:32:38;;;;;;;;;2.00;2.00;;;;;;;;6253834;22;32294;-77
2023/05/10 05:35:03;;;;;;;;;1.50;1.50;;;;;;;;6254247;22;31487;-76
2023/05/10 05:37:28;;;;;;;;;2.00;1.00;;;;;;;;6254475;22;31121;-78
2023/05/10 05:39:54;;;;;;;;;3.00;3.00;;;;;;;;6254968;22;31504;-77
2023/05/10 05:42:19;;;;;;;;;2.00;2.00;;;;;;;;6254766;22;31650;-77
2023/05/10 05:44:45;;;;;;;;;1.00;1.00;;;;;;;;6254409;22;31623;-77
2023/05/10 05:47:10;;;;;;;;;1.75;1.75;;;;;;;;6226509;22;31182;-77
2023/05/10 05:49:35;;;;;;;;;3.25;3.25;;;;;;;;6255334;22;31058;-78
2023/05/10 05:52:01;;;;;;;;;1.25;1.25;;;;;;;;6255660;22;31342;-77
2023/05/10 05:54:27;;;;;;;;;2.25;1.00;;;;;;;;6255975;22;31003;-77
2023/05/10 05:56:56;;;;;;;;;2.00;2.00;;;;;;;;6255889;22;31164;-78
2023/05/10 05:59:21;;;;;;;;;1.75;1.75;;;;;;;;6256166;22;31044;-76
2023/05/10 06:01:46;;;;;;;;;6.00;1.25;;;;;;;;6255272;22;32672;-78
2023/05/10 06:04:12;;;;;;;;;1.75;1.75;;;;;;;;6255729;22;31090;-74
2023/05/10 06:06:37;;;;;;;;;2.00;1.00;;;;;;;;6228538;22;31155;-75
2023/05/10 06:09:02;;;;;;;;;2.00;2.00;;;;;;;;6255670;22;30990;-75
2023/05/10 06:11:28;;;;;;;;;2.50;2.00;;;;;;;;6228605;22;32986;-74
2023/05/10 06:13:53;;;;;;;;;4.00;2.50;;;;;;;;6255825;22;31568;-73
2023/05/10 06:16:18;;;;;;;;;3.50;2.75;;;;;;;;6255588;22;31121;-74
2023/05/10 06:18:43;;;;;;;;;3.50;2.00;;;;;;;;6256013;22;30942;-74
2023/05/10 06:21:09;;;;;;;;;3.75;2.00;;;;;;;;6255601;22;31796;-75
2023/05/10 06:23:34;;;;;;;;;2.50;2.00;;;;;;;;6228241;22;31380;-74
2023/05/10 06:25:59;;;;;;;;;2.50;2.50;;;;;;;;6255726;22;31307;-74
2023/05/10 06:28:24;;;;;;;;;1.75;1.75;;;;;;;;6256193;22;31340;-74
2023/05/10 06:30:50;;;;;;;;;4.00;1.75;;;;;;;;6228129;22;32668;-73
2023/05/10 06:33:15;;;;;;;;;3.00;3.00;;;;;;;;6228146;22;31094;-74
2023/05/10 06:35:41;;;;;;;;;2.75;2.75;;;;;;;;6255790;22;31149;-73
2023/05/10 06:38:06;;;;;;;;;2.25;2.25;;;;;;;;6256081;22;31009;-73
2023/05/10 06:40:32;;;;;;;;;2.00;2.00;;;;;;;;6256179;22;31760;-73
2023/05/10 06:42:57;;;;;;;;;3.50;3.00;;;;;;;;6255683;22;31147;-74
2023/05/10 06:45:22;;;;;;;;;2.00;1.00;;;;;;;;6255573;22;31132;-74
2023/05/10 06:47:48;;;;;;;;;3.50;3.00;;;;;;;;6255375;22;31069;-74
2023/05/10 06:50:13;;;;;;;;;1.25;1.25;;;;;;;;6254530;22;32753;-74
2023/05/10 06:52:38;;;;;;;;;4.00;4.00;;;;;;;;6255592;22;31546;-74
2023/05/10 06:55:04;;;;;;;;;3.50;2.50;;;;;;;;6255179;22;31358;-75
2023/05/10 06:57:29;;;;;;;;;2.00;2.00;;;;;;;;6255586;22;31247;-74
2023/05/10 06:59:56;;;;;;;;;2.00;2.00;;;;;;;;6254668;22;32106;-74
2023/05/10 07:02:21;;;;;;;;;6.00;4.50;;;;;;;;6255779;22;31179;-74
2023/05/10 07:04:46;;;;;;;;;3.75;3.75;;;;;;;;6255746;22;31232;-74
2023/05/10 07:07:12;;;;;;;;;3.00;3.00;;;;;;;;6255019;22;31387;-75
2023/05/10 07:09:37;;;;;;;;;2.00;2.00;;;;;;;;6254865;22;31905;-73
2023/05/10 07:12:02;;;;;;;;;8.00;4.75;;;;;;;;6255733;22;31346;-74
2023/05/10 07:14:27;;;;;;;;;5.00;2.00;;;;;;;;6255513;22;31076;-74
2023/05/10 07:16:53;;;;;;;;;3.50;3.50;;;;;;;;6255663;22;31021;-73
2023/05/10 07:19:18;;;;;;;;;4.75;4.25;;;;;;;;6255587;22;31808;-73
2023/05/10 07:21:43;;;;;;;;;5.00;3.00;;;;;;;;6256197;22;31139;-73
2023/05/10 07:24:08;;;;;;;;;5.00;4.50;;;;;;;;6255792;22;30992;-73
2023/05/10 07:26:34;;;;;;;;;4.50;4.00;;;;;;;;6255666;22;30927;-73
2023/05/10 07:28:59;;;;;;;;;2.25;2.25;;;;;;;;6254763;22;31823;-73
2023/05/10 07:31:24;;;;;;;;;8.25;5.50;;;;;;;;6255430;22;31100;-73
2023/05/10 07:33:49;;;;;;;;;5.25;5.00;;;;;;;;6255535;22;31472;-73
2023/05/10 07:36:15;;;;;;;;;4.00;4.00;;;;;;;;6255538;22;30975;-73
2023/05/10 07:38:40;;;;;;;;;6.00;4.25;;;;;;;;6255214;22;31027;-74
2023/05/10 07:41:05;;;;;;;;;5.75;5.00;;;;;;;;6227750;22;31430;-76
2023/05/10 07:43:32;;;;;;;;;5.25;4.50;;;;;;;;6254710;22;31521;-76
2023/05/10 07:45:57;;;;;;;;;5.00;4.50;;;;;;;;6255566;22;30948;-76
2023/05/10 07:48:22;;;;;;;;;5.50;4.50;;;;;;;;6255130;22;31225;-76
2023/05/10 07:50:48;;;;;;;;;4.00;4.00;;;;;;;;6255036;22;31182;-76
2023/05/10 07:53:13;;;;;;;;;6.00;4.00;;;;;;;;6255166;22;31252;-75
2023/05/10 07:55:38;;;;;;;;;8.75;6.50;;;;;;;;6255139;22;31032;-76
2023/05/10 07:58:03;;;;;;;;;4.50;4.25;;;;;;;;6254743;22;31937;-76
2023/05/10 08:00:29;;;;;;;;;4.75;4.75;;;;;;;;6255248;22;31114;-77
2023/05/10 08:02:54;;;;;;;;;5.75;5.00;;;;;;;;6255357;22;31039;-76
2023/05/10 08:05:19;;;;;;;;;7.50;7.50;;;;;;;;6255385;22;31070;-76
2023/05/10 08:07:44;;;;;;;;;6.50;6.50;;;;;;;;6253876;22;31267;-76
2023/05/10 08:10:11;;;;;;;;;5.25;2.75;;;;;;;;6253154;22;31441;-76
2023/05/10 08:12:36;;;;;;;;;9.00;9.00;;;;;;;;6255189;22;31035;-76
2023/05/10 08:15:01;;;;;;;;;9.25;7.50;;;;;;;;6254812;22;31350;-76
2023/05/10 08:17:26;;;;;;;;;8.75;7.50;;;;;;;;6255009;22;31342;-76
2023/05/10 08:19:52;;;;;;;;;12.00;9.75;;;;;;;;6254564;22;31113;-76
2023/05/10 08:22:17;;;;;;;;;6.00;6.00;;;;;;;;6255595;22;31019;-76
2023/05/10 08:24:42;;;;;;;;;17.25;13.00;;;;;;;;6255366;22;31382;-75
2023/05/10 08:27:08;;;;;;;;;11.00;6.75;;;;;;;;6254699;22;31324;-74
2023/05/10 08:29:33;;;;;;;;;8.75;8.00;;;;;;;;6255176;22;31078;-75
2023/05/10 08:31:58;;;;;;;;;10.00;8.50;;;;;;;;6255528;22;31184;-74
2023/05/10 08:34:23;;;;;;;;;10.25;10.00;;;;;;;;6255986;22;31288;-75
2023/05/10 08:36:48;;;;;;;;;10.00;8.50;;;;;;;;6252843;22;31032;-74
2023/05/10 08:39:14;;;;;;;;;5.75;5.75;;;;;;;;6226205;22;31405;-74
2023/05/10 08:41:40;;;;;;;;;8.75;6.75;;;;;;;;6253528;22;31386;-74
2023/05/10 08:44:07;;;;;;;;;12.25;10.50;;;;;;;;6254676;22;31018;-74
2023/05/10 08:46:34;;;;;;;;;8.50;8.00;;;;;;;;6254412;22;32105;-74
2023/05/10 08:49:01;;;;;;;;;9.25;8.50;;;;;;;;6255140;22;31289;-73
2023/05/10 08:51:27;;;;;;;;;9.00;7.00;;;;;;;;6257520;22;31150;-72
2023/05/10 08:53:52;;;;;;;;;10.00;8.75;;;;;;;;6284932;22;30988;-73
2023/05/10 08:56:20;;;;;;;;;7.25;7.00;;;;;;;;6285185;22;31794;-73
2023/05/10 08:58:45;;;;;;;;;12.50;9.75;;;;;;;;6285583;22;31405;-72
2023/05/10 09:01:10;;;;;;;;;7.50;7.50;;;;;;;;6285951;22;31129;-72
2023/05/10 09:03:38;;;;;;;;;7.00;7.00;;;;;;;;6286388;22;30986;-74
2023/05/10 09:06:03;;;;;;;;;8.25;7.00;;;;;;;;6285718;22;31124;-75
2023/05/10 09:08:29;;;;;;;;;9.50;9.50;;;;;;;;6285315;22;31083;-74
2023/05/10 09:10:54;;;;;;;;;16.00;11.50;;;;;;;;6285286;22;31364;-74
2023/05/10 09:13:20;;;;;;;;;9.00;9.00;;;;;;;;6286069;22;31098;-74
2023/05/10 09:15:46;;;;;;;;;12.00;8.50;;;;;;;;6285588;22;31142;-74
2023/05/10 09:18:12;;;;;;;;;10.25;8.50;;;;;;;;6285270;22;31397;-75
2023/05/10 09:20:37;;;;;;;;;8.75;8.75;;;;;;;;6286186;22;31112;-74
2023/05/10 09:23:02;;;;;;;;;14.00;11.25;;;;;;;;6287038;22;31181;-75
2023/05/10 09:25:28;;;;;;;;;9.50;9.50;;;;;;;;6286034;22;32798;-75
2023/05/10 09:27:53;;;;;;;;;12.00;10.25;;;;;;;;6286574;22;31327;-74
2023/05/10 09:30:21;;;;;;;;;8.50;7.25;;;;;;;;6286838;22;30978;-75
2023/05/10 09:32:47;;;;;;;;;12.25;9.00;;;;;;;;6286813;22;31469;-72
2023/05/10 09:35:14;;;;;;;;;9.25;9.25;;;;;;;;6286376;22;32024;-75
2023/05/10 09:37:43;;;;;;;;;9.25;7.25;;;;;;;;6286465;22;31654;-72
2023/05/10 09:40:16;;;;;;;;;15.00;12.25;;;;;;;;6286585;22;31123;-75
2023/05/10 09:42:42;;;;;;;;;8.00;7.25;;;;;;;;6286930;22;31065;-75
2023/05/10 09:45:07;;;;;;;;;11.00;8.75;;;;;;;;6286380;22;31192;-75
2023/05/10 09:47:36;;;;;;;;;11.50;9.00;;;;;;;;6286927;22;31152;-75
2023/05/10 09:50:03;;;;;;;;;10.25;8.00;;;;;;;;6273643;22;31388;-75
2023/05/10 09:52:29;;;;;;;;;11.00;9.00;;;;;;;;6255760;22;31117;-74
2023/05/10 09:54:54;;;;;;;;;6.00;5.50;;;;;;;;6255537;22;31101;-75
2023/05/10 09:57:21;;;;;;;;;10.75;6.50;;;;;;;;6255778;22;31178;-75
2023/05/10 09:59:46;;;;;;;;;15.00;12.75;;;;;;;;6255951;22;31273;-75
2023/05/10 10:02:12;;;;;;;;;8.25;8.00;;;;;;;;6256103;22;31439;-75
2023/05/10 10:04:40;;;;;;;;;8.00;8.00;;;;;;;;6255791;22;32010;-75
2023/05/10 10:07:06;;;;;;;;;7.25;6.00;;;;;;;;6255441;22;31176;-75
2023/05/10 10:09:31;;;;;;;;;11.75;7.00;;;;;;;;6255606;22;31042;-72
2023/05/10 10:11:57;;;;;;;;;8.25;8.25;;;;;;;;6255570;22;30995;-75
2023/05/10 10:14:23;;;;;;;;;14.25;11.25;;;;;;;;6255898;22;31052;-75
2023/05/10 10:16:49;;;;;;;;;16.25;9.25;;;;;;;;6255767;22;31470;-75
2023/05/10 10:19:14;;;;;;;;;14.75;11.00;;;;;;;;6255499;22;31482;-75
2023/05/10 10:21:40;;;;;;;;;15.50;10.75;;;;;;;;6255541;22;31688;-75
2023/05/10 10:24:05;;;;;;;;;13.75;9.50;;;;;;;;6255429;22;31766;-75
2023/05/10 10:26:33;;;;;;;;;9.25;9.00;;;;;;;;6255894;22;31040;-75
2023/05/10 10:29:19;;;;;;;;;9.75;9.00;;;;;;;;6255855;22;31052;-75
2023/05/10 10:32:13;;;;;;;;;8.50;8.25;;;;;;;;6255510;22;31210;-75
2023/05/10 10:34:39;;;;;;;;;16.75;9.50;;;;;;;;6101182;23;32765;-72
2023/05/10 10:37:05;;;;;;;;;12.50;10.00;;;;;;;;6101718;23;31132;-75
2023/05/10 10:39:31;;;;;;;;;9.25;8.25;;;;;;;;6102086;23;31461;-75
2023/05/10 10:41:57;;;;;;;;;12.00;9.00;;;;;;;;6102201;23;31418;-73
2023/05/10 10:44:25;;;;;;;;;8.00;6.50;;;;;;;;6102061;23;31553;-73
2023/05/10 10:47:11;;;;;;;;;10.75;10.75;;;;;;;;6101712;23;31167;-75
2023/05/10 10:49:39;;;;;;;;;7.00;6.50;;;;;;;;6092970;23;31405;-75
2023/05/10 10:52:23;;;;;;;;;10.00;8.00;;;;;;;;6130549;23;31413;-76
2023/05/10 10:54:58;;;;;;;;;14.00;11.50;;;;;;;;6105959;23;33633;-76
2023/05/10 10:57:23;;;;;;;;;10.00;8.25;;;;;;;;6131441;23;31109;-74
2023/05/10 10:59:48;;;;;;;;;11.50;9.00;;;;;;;;6106226;23;31700;-73
2023/05/10 11:02:33;;;;;;;;;13.00;12.25;;;;;;;;6131340;23;31056;-74
2023/05/10 11:04:59;;;;;;;;;9.50;7.75;;;;;;;;6130846;23;31227;-75
2023/05/10 11:07:24;;;;;;;;;13.50;6.00;;;;;;;;6130921;23;31182;-76
2023/05/10 11:09:49;;;;;;;;;13.00;10.75;;;;;;;;6130880;23;31399;-73
2023/05/10 11:12:15;;;;;;;;;10.00;8.50;;;;;;;;6282295;22;31292;-77
2023/05/10 11:14:40;;;;;;;;;13.25;11.75;;;;;;;;6258370;22;32692;-78
2023/05/10 11:17:24;;;;;;;;;11.50;8.50;;;;;;;;6286405;22;31054;-83
2023/05/10 11:20:24;;;;;;;;;7.00;7.00;;;;;;;;6286551;22;31135;-83
2023/05/10 11:22:53;;;;;;;;;12.25;11.50;;;;;;;;6202545;22;31490;-77
2023/05/10 11:25:18;;;;;;;;;9.00;7.75;;;;;;;;6285331;22;31158;-81
2023/05/10 11:27:44;;;;;;;;;7.00;7.00;;;;;;;;6286318;22;30999;-75
2023/05/10 11:30:10;;;;;;;;;7.25;7.25;;;;;;;;6286019;22;31370;-77
2023/05/10 11:32:37;;;;;;;;;7.75;6.75;;;;;;;;6286377;22;31290;-73
2023/05/10 11:35:06;;;;;;;;;8.50;7.75;;;;;;;;6286080;22;32084;-76
2023/05/10 11:37:34;;;;;;;;;8.25;7.25;;;;;;;;6285109;22;31246;-71
2023/05/10 11:39:59;;;;;;;;;6.25;5.50;;;;;;;;6286179;22;31035;-74
2023/05/10 11:42:24;;;;;;;;;14.50;13.00;;;;;;;;6258343;22;30974;-74
2023/05/10 11:44:49;;;;;;;;;6.00;6.00;;;;;;;;6258473;22;33867;-74
2023/05/10 11:47:14;;;;;;;;;10.00;7.00;;;;;;;;6286603;22;31445;-76
2023/05/10 11:49:43;;;;;;;;;8.50;8.25;;;;;;;;6279250;22;31189;-70
2023/05/10 11:52:08;;;;;;;;;9.50;7.25;;;;;;;;6255031;22;30990;-70
2023/05/10 11:54:37;;;;;;;;;6.25;6.00;;;;;;;;6254854;22;31392;-74
2023/05/10 11:57:02;;;;;;;;;7.50;7.00;;;;;;;;6254833;22;31039;-75
2023/05/10 11:59:27;;;;;;;;;7.75;7.75;;;;;;;;6255210;22;31034;-76
2023/05/10 12:01:52;;;;;;;;;9.00;8.00;;;;;;;;6254999;22;31241;-72
2023/05/10 12:04:18;;;;;;;;;6.50;6.50;;;;;;;;6250562;22;31908;-72
2023/05/10 12:06:43;;;;;;;;;8.00;6.00;;;;;;;;6252822;22;31537;-72
2023/05/10 12:09:09;;;;;;;;;8.75;7.25;;;;;;;;6226058;22;31086;-72
2023/05/10 12:11:36;;;;;;;;;5.50;4.75;;;;;;;;6253231;22;31125;-72
2023/05/10 12:14:04;;;;;;;;;10.25;7.00;;;;;;;;6253330;22;32070;-72
2023/05/10 12:16:29;;;;;;;;;9.50;8.50;;;;;;;;6254435;22;31261;-71
2023/05/10 12:18:58;;;;;;;;;6.50;5.50;;;;;;;;6254195;22;31382;-72
2023/05/10 12:21:24;;;;;;;;;6.50;6.00;;;;;;;;6253966;22;31214;-73
2023/05/10 12:23:53;;;;;;;;;8.75;6.00;;;;;;;;6253137;22;31727;-73
2023/05/10 12:26:18;;;;;;;;;8.75;7.75;;;;;;;;6253848;22;31023;-73
2023/05/10 12:28:44;;;;;;;;;6.75;6.00;;;;;;;;6253515;22;31346;-72
2023/05/10 12:31:09;;;;;;;;;8.75;7.50;;;;;;;;6253859;22;31252;-72
2023/05/10 12:33:38;;;;;;;;;7.50;6.75;;;;;;;;6253530;22;31072;-70
2023/05/10 12:36:04;;;;;;;;;7.75;7.50;;;;;;;;6252363;22;31425;-72
2023/05/10 12:38:32;;;;;;;;;9.00;9.00;;;;;;;;6253240;22;31128;-71
2023/05/10 12:40:59;;;;;;;;;9.50;9.50;;;;;;;;6254046;22;31488;-72
2023/05/10 12:43:24;;;;;;;;;6.50;5.75;;;;;;;;6253124;22;31152;-73
2023/05/10 12:45:49;;;;;;;;;8.50;6.75;;;;;;;;6252768;22;31245;-72
2023/05/10 12:48:15;;;;;;;;;9.00;7.25;;;;;;;;6253491;22;31092;-71
2023/05/10 12:50:40;;;;;;;;;6.25;6.25;;;;;;;;6252667;22;31451;-72
2023/05/10 12:53:05;;;;;;;;;8.25;7.25;;;;;;;;6226162;22;31237;-72
2023/05/10 12:55:30;;;;;;;;;9.50;7.50;;;;;;;;6253278;22;31090;-72
2023/05/10 12:57:55;;;;;;;;;8.50;7.00;;;;;;;;6253584;22;31123;-72
2023/05/10 13:00:21;;;;;;;;;8.25;8.25;;;;;;;;6253464;22;31100;-73
2023/05/10 13:02:46;;;;;;;;;4.25;4.25;;;;;;;;6253125;22;31720;-73
2023/05/10 13:05:12;;;;;;;;;4.00;4.00;;;;;;;;6253254;22;31627;-72
2023/05/10 13:07:38;;;;;;;;;8.50;7.25;;;;;;;;6253445;22;31059;-72
2023/05/10 13:10:03;;;;;;;;;8.00;7.75;;;;;;;;6253249;22;31410;-71
2023/05/10 13:12:29;;;;;;;;;8.25;6.25;;;;;;;;6252822;22;32191;-72
2023/05/10 13:14:54;;;;;;;;;6.00;5.00;;;;;;;;6253329;22;30994;-71
2023/05/10 13:17:19;;;;;;;;;10.00;5.75;;;;;;;;6253370;22;31320;-71
2023/05/10 13:19:45;;;;;;;;;5.50;5.50;;;;;;;;6253283;22;31377;-72
2023/05/10 13:22:10;;;;;;;;;10.00;7.00;;;;;;;;6252915;22;31301;-72
2023/05/10 13:24:35;;;;;;;;;9.00;8.00;;;;;;;;6253442;22;31370;-72
2023/05/10 13:27:00;;;;;;;;;5.25;5.00;;;;;;;;6253104;22;31009;-71
2023/05/10 13:29:25;;;;;;;;;5.75;5.75;;;;;;;;6252865;22;30933;-72
2023/05/10 13:31:50;;;;;;;;;8.25;8.25;;;;;;;;6252819;22;31945;-70
2023/05/10 13:34:16;;;;;;;;;6.25;6.00;;;;;;;;6253186;22;31123;-71
2023/05/10 13:36:41;;;;;;;;;8.75;7.25;;;;;;;;6253248;22;31090;-72
2023/05/10 13:39:07;;;;;;;;;9.00;6.25;;;;;;;;6253911;22;30943;-71
2023/05/10 13:41:32;;;;;;;;;6.75;4.00;;;;;;;;6253498;22;31024;-72
2023/05/10 13:43:57;;;;;;;;;6.50;5.00;;;;;;;;6253996;22;31151;-72
2023/05/10 13:46:22;;;;;;;;;7.25;5.50;;;;;;;;6253608;22;31013;-71
2023/05/10 13:48:48;;;;;;;;;7.50;4.75;;;;;;;;6253133;22;30926;-71
2023/05/10 13:51:13;;;;;;;;;5.25;3.75;;;;;;;;6253523;22;31144;-71
2023/05/10 13:53:38;;;;;;;;;3.75;3.75;;;;;;;;6253521;22;31134;-73
2023/05/10 13:56:04;;;;;;;;;3.00;3.00;;;;;;;;6254054;22;31498;-72
2023/05/10 13:58:29;;;;;;;;;4.75;4.75;;;;;;;;6253785;22;31733;-72
2023/05/10 14:00:55;;;;;;;;;7.75;5.00;;;;;;;;6253001;22;31685;-71
2023/05/10 14:03:20;;;;;;;;;4.00;2.50;;;;;;;;6253534;22;31543;-72
2023/05/10 14:05:45;;;;;;;;;2.00;1.25;;;;;;;;6253425;22;31424;-72
2023/05/10 14:08:12;;;;;;;;;1.00;1.00;;;;;;;;6254020;22;31334;-72
2023/05/10 14:10:38;;;;;;;;;4.00;3.00;;;;;;;;6253583;22;31806;-72
2023/05/10 14:13:03;;;;;;;;;3.00;3.00;;;;;;;;6253828;22;31061;-73
2023/05/10 14:15:28;;;;;;;;;2.25;1.00;;;;;;;;6254337;22;31438;-72
2023/05/10 14:17:53;;;;;;;;;5.00;3.00;;;;;;;;6254880;22;31054;-73
2023/05/10 14:20:18;;;;;;;;;4.00;4.00;;;;;;;;6252985;22;31737;-71
2023/05/10 14:22:43;;;;;;;;;3.00;2.00;;;;;;;;6253070;22;31415;-71
2023/05/10 14:25:09;;;;;;;;;4.00;2.75;;;;;;;;6252471;22;31101;-72
2023/05/10 14:27:34;;;;;;;;;3.50;3.50;;;;;;;;6253617;22;31038;-72
2023/05/10 14:30:00;;;;;;;;;2.00;2.00;;;;;;;;6253058;22;31484;-73
2023/05/10 14:32:26;;;;;;;;;3.75;3.75;;;;;;;;6253182;22;30929;-71
2023/05/10 14:34:51;;;;;;;;;6.00;3.50;;;;;;;;6252832;22;31018;-72
2023/05/10 14:37:17;;;;;;;;;4.00;3.50;;;;;;;;6252904;22;30939;-73
2023/05/10 14:39:42;;;;;;;;;3.00;3.00;;;;;;;;6252929;22;31735;-72
2023/05/10 14:42:08;;;;;;;;;5.00;2.00;;;;;;;;6252903;22;31094;-72
2023/05/10 14:44:33;;;;;;;;;3.00;3.00;;;;;;;;6252879;22;30918;-72
2023/05/10 14:46:58;;;;;;;;;4.75;2.00;;;;;;;;6253325;22;31372;-73
2023/05/10 14:49:25;;;;;;;;;3.00;3.00;;;;;;;;6252051;22;31705;-72
2023/05/10 14:51:50;;;;;;;;;3.00;3.00;;;;;;;;6254073;22;31083;-72
2023/05/10 14:54:15;;;;;;;;;4.00;2.50;;;;;;;;6253244;22;31047;-72
2023/05/10 14:56:41;;;;;;;;;2.00;1.00;;;;;;;;6253658;22;31054;-72
2023/05/10 14:59:07;;;;;;;;;3.50;3.25;;;;;;;;6253103;22;31470;-74
2023/05/10 15:01:32;;;;;;;;;3.50;3.50;;;;;;;;6254236;22;31404;-73
2023/05/10 15:03:58;;;;;;;;;2.75;2.00;;;;;;;;6253314;22;31056;-73
2023/05/10 15:06:25;;;;;;;;;2.00;2.00;;;;;;;;6253859;22;31031;-73
2023/05/10 15:08:50;;;;;;;;;2.00;2.00;;;;;;;;6253831;22;31014;-73
2023/05/10 15:11:15;;;;;;;;;2.00;1.75;;;;;;;;6253983;22;31222;-73
2023/05/10 15:13:40;;;;;;;;;2.50;2.50;;;;;;;;6254157;22;31307;-73
2023/05/10 15:16:05;;;;;;;;;4.50;4.50;;;;;;;;6254285;22;31458;-72
2023/05/10 15:18:31;;;;;;;;;2.75;2.00;;;;;;;;6252981;22;31874;-72
2023/05/10 15:20:57;;;;;;;;;4.00;2.00;;;;;;;;6253647;22;30963;-76
2023/05/10 15:23:22;;;;;;;;;5.50;4.00;;;;;;;;6254567;22;31377;-76
2023/05/10 15:25:49;;;;;;;;;2.75;2.25;;;;;;;;6254175;22;31406;-73
2023/05/10 15:28:14;;;;;;;;;3.75;3.75;;;;;;;;6254796;22;31979;-74
2023/05/10 15:30:39;;;;;;;;;3.25;3.25;;;;;;;;6254999;22;31288;-73
2023/05/10 15:33:05;;;;;;;;;3.00;3.00;;;;;;;;6254918;22;31413;-73
2023/05/10 15:35:30;;;;;;;;;4.25;3.25;;;;;;;;6255123;22;31365;-76
2023/05/10 15:37:55;;;;;;;;;4.00;3.25;;;;;;;;6252031;22;32419;-76
2023/05/10 15:40:20;;;;;;;;;4.25;4.25;;;;;;;;6252972;22;31221;-76
2023/05/10 15:42:45;;;;;;;;;4.25;3.00;;;;;;;;6253248;22;31059;-78
2023/05/10 15:45:11;;;;;;;;;5.00;3.25;;;;;;;;6254072;22;30963;-76
2023/05/10 15:47:39;;;;;;;;;4.75;4.00;;;;;;;;6252634;22;31745;-75
2023/05/10 15:50:04;;;;;;;;;2.50;2.00;;;;;;;;6251929;22;31250;-74
2023/05/10 15:52:29;;;;;;;;;5.50;3.75;;;;;;;;6253252;22;31071;-75
2023/05/10 15:54:55;;;;;;;;;1.75;1.50;;;;;;;;6253728;22;31011;-75
2023/05/10 15:57:20;;;;;;;;;2.50;2.50;;;;;;;;6226000;22;31739;-76
2023/05/10 15:59:45;;;;;;;;;4.75;4.00;;;;;;;;6255191;22;31253;-76
2023/05/10 16:02:11;;;;;;;;;2.75;1.75;;;;;;;;6254098;22;31466;-77
2023/05/10 16:04:36;;;;;;;;;6.00;4.00;;;;;;;;6253863;22;30991;-75
2023/05/10 16:07:01;;;;;;;;;4.25;3.50;;;;;;;;6252926;22;31577;-75
2023/05/10 16:09:27;;;;;;;;;5.00;4.00;;;;;;;;6253005;22;31109;-76
2023/05/10 16:11:52;;;;;;;;;5.50;5.00;;;;;;;;6254137;22;30983;-75
2023/05/10 16:14:19;;;;;;;;;4.75;4.25;;;;;;;;6227154;22;31352;-74
2023/05/10 16:16:44;;;;;;;;;5.75;5.00;;;;;;;;6254706;22;31018;-74
2023/05/10 16:19:09;;;;;;;;;4.00;3.00;;;;;;;;6253329;22;31290;-75
2023/05/10 16:21:35;;;;;;;;;4.50;4.50;;;;;;;;6254552;22;31269;-75
2023/05/10 16:24:01;;;;;;;;;2.25;2.25;;;;;;;;6255020;22;31038;-74
2023/05/10 16:26:27;;;;;;;;;4.75;3.25;;;;;;;;6253321;22;31455;-76
2023/05/10 16:28:52;;;;;;;;;2.00;2.00;;;;;;;;6254630;22;31113;-73
2023/05/10 16:31:18;;;;;;;;;2.75;0.75;;;;;;;;6225776;22;31467;-75
2023/05/10 16:33:43;;;;;;;;;0.50;0.50;;;;;;;;6253878;22;31058;-77
2023/05/10 16:36:09;;;;;;;;;1.00;0.25;;;;;;;;6251244;22;32675;-75
2023/05/10 16:38:34;;;;;;;;;0.50;0.50;;;;;;;;6253721;22;31427;-75
2023/05/10 16:41:03;;;;;;;;;1.50;1.50;;;;;;;;6226908;22;31309;-73
2023/05/10 16:43:29;;;;;;;;;3.75;3.75;;;;;;;;6253637;22;31091;-74
2023/05/10 16:45:54;;;;;;;;;2.75;2.75;;;;;;;;6253483;22;31623;-73
2023/05/10 16:48:19;;;;;;;;;3.75;3.00;;;;;;;;6254614;22;30990;-72
2023/05/10 16:50:44;;;;;;;;;1.00;1.00;;;;;;;;6248167;22;31129;-73
2023/05/10 16:53:10;;;;;;;;;2.50;2.50;;;;;;;;6284314;22;31167;-73
2023/05/10 16:55:35;;;;;;;;;3.25;3.00;;;;;;;;6284416;22;31921;-71
2023/05/10 16:58:01;;;;;;;;;2.00;2.00;;;;;;;;6284219;22;31161;-73
2023/05/10 17:00:27;;;;;;;;;3.25;2.75;;;;;;;;6285532;22;31347;-73
2023/05/10 17:02:53;;;;;;;;;4.75;4.25;;;;;;;;6285477;22;31068;-74
2023/05/10 17:05:18;;;;;;;;;4.75;4.00;;;;;;;;6284731;22;31277;-73
2023/05/10 17:07:43;;;;;;;;;2.50;2.50;;;;;;;;6284350;22;31257;-73
2023/05/10 17:10:09;;;;;;;;;5.00;3.25;;;;;;;;6284022;22;31450;-74
2023/05/10 17:12:34;;;;;;;;;2.75;2.75;;;;;;;;6284470;22;31002;-74
2023/05/10 17:15:00;;;;;;;;;3.25;3.25;;;;;;;;6284137;22;31743;-72
2023/05/10 17:17:25;;;;;;;;;5.25;4.00;;;;;;;;6284363;22;31002;-72
2023/05/10 17:19:50;;;;;;;;;8.25;4.50;;;;;;;;6284219;22;31045;-71
2023/05/10 17:22:16;;;;;;;;;5.50;4.75;;;;;;;;6285004;22;31535;-71
2023/05/10 17:24:41;;;;;;;;;4.00;3.25;;;;;;;;6283722;22;32894;-71
2023/05/10 17:27:07;;;;;;;;;6.00;5.00;;;;;;;;6284691;22;31434;-72
2023/05/10 17:29:32;;;;;;;;;1.75;1.75;;;;;;;;6284921;22;31530;-74
2023/05/10 17:31:57;;;;;;;;;4.50;4.25;;;;;;;;6284951;22;31082;-74
2023/05/10 17:34:22;;;;;;;;;6.00;4.00;;;;;;;;6284560;22;31704;-74
2023/05/10 17:36:48;;;;;;;;;4.25;4.00;;;;;;;;6285323;22;31507;-74
2023/05/10 17:39:13;;;;;;;;;1.75;1.75;;;;;;;;6286041;22;31373;-79
2023/05/10 17:41:38;;;;;;;;;4.50;4.50;;;;;;;;6284981;22;31342;-72
2023/05/10 17:44:03;;;;;;;;;5.50;4.00;;;;;;;;6284662;22;30947;-72
2023/05/10 17:46:28;;;;;;;;;4.25;3.00;;;;;;;;6286777;22;31446;-72
2023/05/10 17:48:53;;;;;;;;;6.25;5.25;;;;;;;;6286593;22;31209;-74
2023/05/10 17:51:19;;;;;;;;;6.25;3.00;;;;;;;;6256682;22;31421;-76
2023/05/10 17:53:44;;;;;;;;;3.00;3.00;;;;;;;;6255483;22;31814;-76
2023/05/10 17:56:10;;;;;;;;;3.75;3.75;;;;;;;;6255616;22;31349;-80
2023/05/10 17:58:37;;;;;;;;;3.75;3.75;;;;;;;;6228548;22;31169;-75
2023/05/10 18:01:02;;;;;;;;;3.00;3.00;;;;;;;;6256132;22;31089;-77
2023/05/10 18:03:27;;;;;;;;;3.00;3.00;;;;;;;;6255633;22;31674;-76
2023/05/10 18:05:54;;;;;;;;;3.75;3.25;;;;;;;;6255940;22;31011;-75
2023/05/10 18:08:21;;;;;;;;;2.25;1.00;;;;;;;;6255961;22;31130;-76
2023/05/10 18:10:47;;;;;;;;;3.25;3.00;;;;;;;;6256021;22;31217;-75
2023/05/10 18:13:12;;;;;;;;;4.00;4.00;;;;;;;;6255610;22;31164;-74
2023/05/10 18:15:37;;;;;;;;;5.75;4.50;;;;;;;;6255660;22;31063;-76
2023/05/10 18:18:03;;;;;;;;;3.50;3.00;;;;;;;;6255715;22;31585;-77
2023/05/10 18:20:29;;;;;;;;;3.75;3.75;;;;;;;;6256171;22;31350;-75
2023/05/10 18:22:54;;;;;;;;;2.25;2.25;;;;;;;;6252688;22;31719;-72
2023/05/10 18:25:19;;;;;;;;;4.25;4.25;;;;;;;;6255702;22;31457;-72
2023/05/10 18:27:44;;;;;;;;;3.50;3.50;;;;;;;;6255672;22;31301;-72
2023/05/10 18:30:11;;;;;;;;;1.75;1.75;;;;;;;;6255941;22;31014;-72
2023/05/10 18:32:37;;;;;;;;;3.00;3.00;;;;;;;;6255252;22;32052;-72
2023/05/10 18:35:03;;;;;;;;;3.50;3.50;;;;;;;;6253014;22;31424;-72
2023/05/10 18:37:28;;;;;;;;;2.50;2.50;;;;;;;;6254602;22;31072;-73
2023/05/10 18:39:53;;;;;;;;;4.25;3.00;;;;;;;;6255489;22;31372;-73
2023/05/10 18:42:19;;;;;;;;;3.75;3.75;;;;;;;;6254132;22;31834;-73
2023/05/10 18:44:44;;;;;;;;;5.00;5.00;;;;;;;;6255205;22;31078;-73
2023/05/10 18:47:09;;;;;;;;;3.25;3.25;;;;;;;;6255078;22;31471;-73
2023/05/10 18:49:35;;;;;;;;;5.00;4.00;;;;;;;;6254370;22;31137;-72
2023/05/10 18:52:00;;;;;;;;;6.50;6.25;;;;;;;;6255336;22;31263;-72
2023/05/10 18:54:25;;;;;;;;;5.25;4.75;;;;;;;;6255061;22;30987;-74
2023/05/10 18:56:51;;;;;;;;;6.00;5.25;;;;;;;;6253788;22;31304;-72
2023/05/10 18:59:16;;;;;;;;;5.25;5.25;;;;;;;;6253770;22;31301;-75
2023/05/10 19:01:41;;;;;;;;;7.00;6.00;;;;;;;;6254619;22;31637;-74
2023/05/10 19:04:09;;;;;;;;;5.00;3.75;;;;;;;;6253227;22;31003;-73
2023/05/10 19:06:34;;;;;;;;;6.25;4.75;;;;;;;;6254697;22;31423;-73
2023/05/10 19:08:59;;;;;;;;;4.25;4.25;;;;;;;;6255479;22;30986;-74
2023/05/10 19:11:25;;;;;;;;;3.25;3.25;;;;;;;;6227236;22;31594;-74
2023/05/10 19:13:50;;;;;;;;;5.50;5.50;;;;;;;;6253439;22;31024;-74
2023/05/10 19:16:16;;;;;;;;;8.25;5.25;;;;;;;;6255255;22;31030;-76
2023/05/10 19:18:41;;;;;;;;;7.50;5.00;;;;;;;;6255351;22;31042;-74
2023/05/10 19:21:07;;;;;;;;;5.00;4.50;;;;;;;;6254814;22;31149;-74